createdAt,value
2018-12-09T00:00:27.217Z,1.47
2018-12-09T00:02:55.619Z,2.17
2018-12-09T00:05:23.776Z,2.33
2018-12-09T00:07:51.907Z,0.80
2018-12-09T00:10:20.049Z,1.20
2018-12-09T00:12:48.849Z,0.70
2018-12-09T00:15:17.010Z,0.80
2018-12-09T00:17:45.251Z,1.23
2018-12-09T00:20:13.433Z,1.10
2018-12-09T00:22:41.653Z,0.50
2018-12-09T00:25:09.859Z,1.80
2018-12-09T00:27:38.459Z,0.50
2018-12-09T00:30:06.799Z,0.40
2018-12-09T00:32:34.902Z,0.63
2018-12-09T00:35:03.280Z,0.40
2018-12-09T00:37:31.453Z,0.40
2018-12-09T00:39:59.575Z,0.67
2018-12-09T00:42:27.779Z,0.37
2018-12-09T00:44:55.894Z,0.60
2018-12-09T00:47:25.044Z,1.77
2018-12-09T00:49:53.204Z,0.67
2018-12-09T00:52:21.324Z,1.20
2018-12-09T00:54:49.494Z,0.30
2018-12-09T00:57:17.616Z,0.93
2018-12-09T00:59:45.718Z,0.50
2018-12-09T01:02:14.076Z,0.37
2018-12-09T01:04:42.226Z,0.20
2018-12-09T01:07:10.532Z,0.50
2018-12-09T01:09:38.918Z,0.30
2018-12-09T01:12:07.118Z,0.20
2018-12-09T01:14:35.423Z,0.27
2018-12-09T01:17:03.845Z,0.50
2018-12-09T01:19:32.217Z,0.23
2018-12-09T01:22:00.354Z,0.70
2018-12-09T01:24:28.484Z,2.30
2018-12-09T01:26:56.770Z,0.23
2018-12-09T01:29:25.086Z,0.30
2018-12-09T01:31:53.240Z,0.20
2018-12-09T01:34:21.405Z,0.20
2018-12-09T01:36:49.825Z,0.20
2018-12-09T01:39:18.212Z,0.60
2018-12-09T01:41:46.387Z,0.20
2018-12-09T01:44:15.449Z,0.10
2018-12-09T01:46:43.815Z,0.40
2018-12-09T01:49:12.131Z,0.20
2018-12-09T01:51:40.427Z,0.50
2018-12-09T01:54:13.223Z,1.13
2018-12-09T01:56:41.681Z,0.50
2018-12-09T01:59:09.832Z,0.20
2018-12-09T02:01:38.305Z,0.30
2018-12-09T02:04:07.252Z,0.20
2018-12-09T02:06:35.967Z,0.30
2018-12-09T02:09:07.775Z,0.30
2018-12-09T02:11:36.328Z,0.10
2018-12-09T02:14:04.725Z,0.30
2018-12-09T02:16:33.819Z,0.20
2018-12-09T02:19:19.669Z,0.20
2018-12-09T02:21:48.459Z,0.30
2018-12-09T02:24:17.216Z,0.20
2018-12-09T02:26:45.757Z,0.37
2018-12-09T02:29:14.367Z,0.87
2018-12-09T02:31:43.008Z,1.17
2018-12-09T02:34:11.502Z,0.40
2018-12-09T02:36:40.590Z,0.60
2018-12-09T02:39:10.732Z,1.53
2018-12-09T02:41:39.282Z,2.03
2018-12-09T02:44:07.536Z,0.30
2018-12-09T02:46:36.762Z,0.20
2018-12-09T02:49:05.165Z,0.40
2018-12-09T02:51:33.686Z,0.80
2018-12-09T02:54:02.163Z,0.30
2018-12-09T02:56:30.479Z,1.00
2018-12-09T02:58:58.693Z,0.50
2018-12-09T03:01:27.152Z,0.77
2018-12-09T03:03:55.321Z,0.80
2018-12-09T03:06:23.820Z,0.30
2018-12-09T03:08:52.284Z,1.53
2018-12-09T03:11:20.610Z,1.33
2018-12-09T03:13:48.752Z,1.10
2018-12-09T03:16:16.979Z,0.87
2018-12-09T03:18:45.150Z,0.83
2018-12-09T03:21:13.415Z,0.57
2018-12-09T03:23:41.721Z,1.57
2018-12-09T03:26:10.057Z,0.93
2018-12-09T03:28:38.230Z,0.87
2018-12-09T03:31:06.521Z,2.07
2018-12-09T03:33:34.728Z,1.33
2018-12-09T03:36:03.848Z,0.67
2018-12-09T03:38:32.897Z,2.27
2018-12-09T03:41:02.291Z,0.87
2018-12-09T03:43:31.291Z,2.00
2018-12-09T03:45:59.444Z,0.67
2018-12-09T03:48:27.737Z,1.20
2018-12-09T03:50:55.829Z,2.87
2018-12-09T03:53:24.195Z,2.00
2018-12-09T03:55:52.499Z,0.67
2018-12-09T03:58:20.891Z,1.97
2018-12-09T04:00:49.217Z,2.60
2018-12-09T04:03:17.679Z,3.50
2018-12-09T04:05:45.798Z,1.13
2018-12-09T04:08:14.132Z,2.27
2018-12-09T04:10:42.421Z,1.63
2018-12-09T04:13:10.567Z,1.73
2018-12-09T04:15:40.715Z,2.27
2018-12-09T04:18:09.453Z,2.43
2018-12-09T04:20:37.688Z,2.23
2018-12-09T04:23:06.779Z,3.33
2018-12-09T04:25:34.987Z,2.07
2018-12-09T04:28:03.566Z,1.60
2018-12-09T04:30:31.739Z,1.57
2018-12-09T04:32:59.894Z,2.20
2018-12-09T04:35:29.084Z,0.83
2018-12-09T04:37:57.340Z,2.43
2018-12-09T04:40:25.714Z,3.60
2018-12-09T04:42:54.114Z,1.07
2018-12-09T04:45:22.266Z,1.37
2018-12-09T04:47:50.826Z,0.63
2018-12-09T04:50:19.011Z,1.33
2018-12-09T04:52:47.742Z,0.27
2018-12-09T04:55:16.074Z,0.77
2018-12-09T04:57:44.442Z,1.27
2018-12-09T05:00:29.776Z,1.70
2018-12-09T05:02:58.105Z,0.50
2018-12-09T05:05:26.276Z,0.90
2018-12-09T05:07:54.671Z,0.40
2018-12-09T05:10:22.883Z,2.03
2018-12-09T05:12:51.108Z,0.40
2018-12-09T05:15:19.286Z,0.87
2018-12-09T05:17:47.616Z,0.40
2018-12-09T05:20:16.429Z,0.87
2018-12-09T05:22:44.813Z,0.80
2018-12-09T05:25:13.681Z,1.93
2018-12-09T05:27:41.840Z,1.10
2018-12-09T05:30:10.140Z,0.50
2018-12-09T05:32:38.523Z,0.80
2018-12-09T05:35:07.787Z,1.53
2018-12-09T05:37:36.548Z,0.50
2018-12-09T05:40:05.363Z,0.93
2018-12-09T05:42:33.593Z,1.03
2018-12-09T05:45:01.926Z,1.17
2018-12-09T05:47:30.322Z,0.80
2018-12-09T05:49:58.507Z,1.83
2018-12-09T05:52:26.730Z,1.33
2018-12-09T05:54:55.074Z,1.77
2018-12-09T05:57:25.593Z,1.07
2018-12-09T05:59:53.897Z,4.23
2018-12-09T06:02:56.892Z,1.23
2018-12-09T06:05:25.441Z,0.97
2018-12-09T06:07:53.853Z,0.57
2018-12-09T06:10:22.264Z,1.77
2018-12-09T06:12:50.435Z,0.83
2018-12-09T06:15:19.028Z,0.83
2018-12-09T06:17:47.360Z,0.50
2018-12-09T06:20:15.577Z,0.70
2018-12-09T06:22:43.932Z,2.10
2018-12-09T06:25:12.415Z,2.10
2018-12-09T06:27:40.653Z,1.53
2018-12-09T06:30:10.876Z,0.77
2018-12-09T06:32:39.076Z,0.90
2018-12-09T06:35:08.177Z,1.90
2018-12-09T06:37:36.488Z,1.97
2018-12-09T06:40:05.533Z,1.63
2018-12-09T06:42:34.325Z,1.77
2018-12-09T06:45:03.235Z,1.37
2018-12-09T06:47:31.350Z,2.07
2018-12-09T06:49:59.508Z,1.00
2018-12-09T06:52:27.665Z,0.70
2018-12-09T06:54:56.453Z,0.77
2018-12-09T06:57:25.281Z,1.60
2018-12-09T06:59:54.416Z,0.53
2018-12-09T07:02:22.890Z,1.20
2018-12-09T07:04:51.039Z,2.23
2018-12-09T07:07:19.605Z,2.60
2018-12-09T07:09:47.935Z,1.87
2018-12-09T07:12:16.121Z,1.40
2018-12-09T07:14:44.435Z,2.03
2018-12-09T07:17:19.494Z,3.40
2018-12-09T07:19:47.729Z,1.63
2018-12-09T07:22:15.976Z,0.97
2018-12-09T07:24:44.372Z,1.40
2018-12-09T07:27:12.721Z,1.87
2018-12-09T07:29:41.049Z,1.30
2018-12-09T07:32:09.251Z,1.63
2018-12-09T07:34:38.434Z,1.20
2018-12-09T07:37:06.796Z,1.50
2018-12-09T07:39:35.119Z,2.33
2018-12-09T07:42:03.494Z,3.53
2018-12-09T07:44:31.760Z,2.70
2018-12-09T07:47:00.063Z,2.37
2018-12-09T07:49:28.260Z,2.17
2018-12-09T07:51:56.601Z,2.73
2018-12-09T07:54:24.897Z,3.77
2018-12-09T07:56:53.213Z,3.33
2018-12-09T07:59:21.520Z,4.67
2018-12-09T08:01:49.824Z,2.43
2018-12-09T08:04:17.968Z,2.80
2018-12-09T08:06:46.162Z,3.47
2018-12-09T08:09:14.346Z,2.97
2018-12-09T08:11:42.640Z,5.03
2018-12-09T08:14:10.793Z,5.37
2018-12-09T08:16:39.051Z,2.87
2018-12-09T08:19:07.555Z,3.50
2018-12-09T08:21:36.389Z,2.33
2018-12-09T08:24:04.662Z,2.47
2018-12-09T08:26:32.891Z,3.07
2018-12-09T08:29:01.100Z,4.90
2018-12-09T08:31:29.475Z,1.90
2018-12-09T08:33:57.766Z,1.73
2018-12-09T08:36:25.962Z,4.37
2018-12-09T08:38:54.276Z,4.40
2018-12-09T08:41:22.628Z,2.33
2018-12-09T08:43:50.881Z,2.23
2018-12-09T08:46:19.310Z,1.67
2018-12-09T08:48:47.776Z,3.07
2018-12-09T08:51:15.922Z,3.53
2018-12-09T08:53:44.133Z,3.10
2018-12-09T08:56:12.511Z,2.23
2018-12-09T08:58:40.813Z,3.00
2018-12-09T09:01:09.095Z,2.80
2018-12-09T09:03:37.300Z,3.17
2018-12-09T09:06:05.472Z,1.93
2018-12-09T09:08:33.741Z,2.03
2018-12-09T09:11:02.023Z,1.60
2018-12-09T09:13:30.151Z,2.73
2018-12-09T09:15:58.447Z,2.37
2018-12-09T09:18:26.755Z,1.57
2018-12-09T09:20:54.901Z,2.27
2018-12-09T09:23:23.123Z,2.47
2018-12-09T09:25:51.217Z,0.83
2018-12-09T09:28:19.470Z,2.10
2018-12-09T09:30:47.694Z,0.97
2018-12-09T09:33:15.859Z,2.73
2018-12-09T09:35:44.030Z,1.03
2018-12-09T09:38:12.296Z,1.90
2018-12-09T09:40:40.499Z,1.43
2018-12-09T09:43:08.723Z,1.63
2018-12-09T09:45:36.828Z,1.63
2018-12-09T09:48:05.230Z,1.80
2018-12-09T09:50:33.427Z,1.00
2018-12-09T09:53:01.676Z,2.23
2018-12-09T09:55:29.817Z,0.73
2018-12-09T09:57:58.021Z,2.03
2018-12-09T10:00:27.189Z,0.97
2018-12-09T10:02:56.169Z,0.70
2018-12-09T10:05:24.415Z,0.97
2018-12-09T10:07:53.102Z,1.00
2018-12-09T10:10:21.315Z,0.80
2018-12-09T10:12:50.143Z,1.07
2018-12-09T10:15:19.001Z,1.23
2018-12-09T10:17:47.679Z,0.60
2018-12-09T10:20:15.827Z,0.40
2018-12-09T10:22:44.025Z,0.70
2018-12-09T10:25:12.227Z,1.07
2018-12-09T10:27:40.439Z,0.40
2018-12-09T10:30:09.383Z,0.30
2018-12-09T10:32:37.657Z,0.50
2018-12-09T10:35:06.777Z,0.40
2018-12-09T10:37:35.027Z,0.30
2018-12-09T10:40:04.796Z,0.47
2018-12-09T10:42:33.738Z,0.70
2018-12-09T10:45:01.950Z,2.47
2018-12-09T10:47:30.113Z,0.33
2018-12-09T10:49:58.285Z,0.23
2018-12-09T10:52:26.545Z,0.67
2018-12-09T10:54:54.876Z,0.60
2018-12-09T10:57:24.202Z,0.63
2018-12-09T10:59:52.475Z,1.30
2018-12-09T11:02:20.708Z,1.80
2018-12-09T11:04:48.957Z,1.07
2018-12-09T11:07:17.178Z,0.50
2018-12-09T11:09:45.510Z,0.30
2018-12-09T11:12:14.262Z,1.53
2018-12-09T11:14:42.481Z,0.80
2018-12-09T11:17:10.621Z,2.80
2018-12-09T11:19:38.783Z,0.50
2018-12-09T11:22:07.008Z,0.80
2018-12-09T11:24:35.247Z,0.80
2018-12-09T11:27:03.496Z,1.50
2018-12-09T11:29:31.649Z,0.77
2018-12-09T11:31:59.865Z,0.93
2018-12-09T11:34:27.919Z,0.63
2018-12-09T11:36:56.141Z,1.23
2018-12-09T11:39:24.326Z,0.60
2018-12-09T11:41:52.502Z,1.70
2018-12-09T11:44:20.694Z,4.03
2018-12-09T11:46:48.908Z,1.87
2018-12-09T11:49:17.084Z,0.90
2018-12-09T11:51:45.329Z,1.30
2018-12-09T11:54:13.547Z,1.83
2018-12-09T11:56:42.854Z,1.93
2018-12-09T11:59:11.958Z,0.70
2018-12-09T12:01:40.703Z,1.43
2018-12-09T12:04:08.888Z,1.70
2018-12-09T12:06:37.118Z,1.37
2018-12-09T12:09:06.432Z,1.67
2018-12-09T12:11:34.626Z,2.07
2018-12-09T12:14:03.353Z,2.07
2018-12-09T12:16:31.717Z,1.67
2018-12-09T12:19:00.167Z,2.77
2018-12-09T12:21:28.335Z,2.17
2018-12-09T12:23:56.530Z,3.40
2018-12-09T12:26:24.767Z,2.43
2018-12-09T12:28:53.038Z,1.83
2018-12-09T12:31:21.315Z,3.57
2018-12-09T12:33:50.642Z,1.53
2018-12-09T12:36:19.446Z,0.97
2018-12-09T12:38:47.567Z,1.47
2018-12-09T12:41:15.719Z,0.97
2018-12-09T12:43:44.617Z,0.77
2018-12-09T12:46:12.796Z,2.07
2018-12-09T12:48:40.958Z,1.50
2018-12-09T12:51:09.133Z,1.10
2018-12-09T12:53:37.328Z,2.33
2018-12-09T12:56:05.525Z,1.63
2018-12-09T12:58:33.680Z,1.23
2018-12-09T13:01:01.920Z,0.93
2018-12-09T13:03:30.224Z,0.90
2018-12-09T13:05:59.401Z,0.83
2018-12-09T13:08:27.740Z,1.03
2018-12-09T13:10:55.969Z,1.53
2018-12-09T13:13:24.154Z,1.60
2018-12-09T13:15:52.340Z,1.90
2018-12-09T13:18:20.492Z,1.37
2018-12-09T13:20:48.692Z,1.07
2018-12-09T13:23:16.942Z,1.37
2018-12-09T13:25:45.604Z,2.07
2018-12-09T13:28:13.782Z,0.77
2018-12-09T13:30:41.944Z,2.33
2018-12-09T13:33:10.204Z,1.23
2018-12-09T13:35:38.494Z,2.07
2018-12-09T13:38:06.686Z,1.70
2018-12-09T13:40:34.908Z,1.37
2018-12-09T13:43:03.202Z,0.90
2018-12-09T13:45:31.462Z,1.53
2018-12-09T13:48:00.394Z,1.07
2018-12-09T13:50:28.826Z,1.20
2018-12-09T13:52:57.089Z,1.73
2018-12-09T13:55:25.267Z,1.10
2018-12-09T13:57:54.185Z,1.23
2018-12-09T14:00:23.392Z,1.97
2018-12-09T14:02:51.673Z,2.87
2018-12-09T14:05:19.849Z,1.17
2018-12-09T14:07:48.057Z,1.17
2018-12-09T14:10:16.453Z,1.10
2018-12-09T14:12:44.727Z,1.23
2018-12-09T14:15:13.070Z,1.70
2018-12-09T14:17:41.343Z,1.70
2018-12-09T14:20:10.244Z,1.40
2018-12-09T14:22:38.425Z,2.13
2018-12-09T14:25:07.575Z,2.03
2018-12-09T14:27:36.578Z,1.13
2018-12-09T14:30:06.915Z,1.27
2018-12-09T14:32:35.503Z,0.60
2018-12-09T14:35:06.115Z,2.63
2018-12-09T14:37:34.365Z,2.23
2018-12-09T14:40:03.421Z,2.60
2018-12-09T14:42:31.538Z,1.83
2018-12-09T14:44:59.715Z,1.40
2018-12-09T14:47:27.883Z,1.40
2018-12-09T14:49:56.120Z,1.73
2018-12-09T14:52:24.329Z,1.30
2018-12-09T14:54:52.595Z,1.87
2018-12-09T14:57:20.798Z,2.17
2018-12-09T14:59:48.941Z,1.93
2018-12-09T15:02:17.190Z,4.67
2018-12-09T15:04:45.399Z,3.33
2018-12-09T15:07:13.567Z,2.03
2018-12-09T15:09:41.780Z,3.20
2018-12-09T15:12:10.854Z,1.87
2018-12-09T15:14:39.146Z,1.53
2018-12-09T15:17:07.387Z,1.10
2018-12-09T15:19:35.716Z,1.23
2018-12-09T15:22:04.172Z,2.50
2018-12-09T15:24:32.441Z,1.33
2018-12-09T15:27:00.576Z,1.63
2018-12-09T15:29:28.763Z,2.00
2018-12-09T15:31:56.938Z,1.00
2018-12-09T15:34:25.160Z,1.40
2018-12-09T15:36:53.308Z,2.57
2018-12-09T15:39:21.462Z,2.20
2018-12-09T15:41:49.636Z,2.30
2018-12-09T15:44:17.835Z,1.77
2018-12-09T15:46:46.036Z,2.40
2018-12-09T15:49:14.930Z,2.40
2018-12-09T15:51:43.142Z,2.30
2018-12-09T15:54:11.726Z,2.23
2018-12-09T15:56:39.870Z,2.33
2018-12-09T15:59:08.060Z,2.57
2018-12-09T16:01:36.388Z,3.00
2018-12-09T16:04:04.583Z,1.37
2018-12-09T16:06:32.723Z,1.97
2018-12-09T16:09:00.861Z,2.20
2018-12-09T16:11:29.111Z,2.67
2018-12-09T16:13:57.289Z,2.10
2018-12-09T16:16:25.466Z,3.53
2018-12-09T16:18:53.947Z,0.93
2018-12-09T16:21:22.241Z,0.97
2018-12-09T16:23:50.440Z,1.23
2018-12-09T16:26:18.561Z,1.30
2018-12-09T16:28:46.740Z,1.53
2018-12-09T16:31:14.935Z,1.73
2018-12-09T16:33:43.124Z,1.40
2018-12-09T16:36:11.333Z,0.80
2018-12-09T16:38:39.443Z,1.13
2018-12-09T16:41:07.601Z,1.67
2018-12-09T16:43:35.774Z,1.20
2018-12-09T16:46:04.016Z,2.07
2018-12-09T16:48:32.202Z,0.83
2018-12-09T16:51:00.399Z,1.27
2018-12-09T16:53:28.625Z,2.07
2018-12-09T16:55:56.908Z,1.10
2018-12-09T16:58:25.035Z,1.50
2018-12-09T17:00:53.233Z,1.83
2018-12-09T17:03:21.400Z,1.33
2018-12-09T17:05:49.938Z,2.60
2018-12-09T17:08:18.149Z,1.80
2018-12-09T17:10:46.283Z,1.80
2018-12-09T17:13:14.443Z,3.63
2018-12-09T17:15:42.594Z,2.70
2018-12-09T17:18:10.918Z,1.70
2018-12-09T17:20:39.503Z,2.50
2018-12-09T17:23:07.688Z,1.43
2018-12-09T17:25:35.842Z,2.00
2018-12-09T17:28:10.802Z,2.07
2018-12-09T17:30:39.108Z,1.37
2018-12-09T17:33:07.348Z,2.33
2018-12-09T17:35:35.521Z,3.00
2018-12-09T17:38:03.734Z,2.00
2018-12-09T17:40:31.935Z,1.80
2018-12-09T17:43:00.123Z,2.13
2018-12-09T17:45:28.327Z,2.10
2018-12-09T17:47:56.572Z,2.67
2018-12-09T17:50:24.738Z,2.07
2018-12-09T17:52:52.892Z,2.87
2018-12-09T17:55:21.587Z,5.17
2018-12-09T17:57:49.765Z,2.27
2018-12-09T18:00:17.963Z,2.90
2018-12-09T18:02:46.355Z,3.50
2018-12-09T18:05:14.587Z,2.10
2018-12-09T18:07:43.432Z,2.90
2018-12-09T18:10:11.620Z,3.67
2018-12-09T18:12:47.717Z,2.43
2018-12-09T18:15:14.491Z,3.07
2018-12-09T18:17:43.000Z,2.13
2018-12-09T18:20:11.315Z,2.87
2018-12-09T18:22:39.541Z,2.40
2018-12-09T18:25:07.977Z,5.13
2018-12-09T18:27:36.270Z,6.60
2018-12-09T18:30:05.148Z,4.57
2018-12-09T18:32:33.352Z,4.43
2018-12-09T18:35:01.579Z,3.00
2018-12-09T18:37:29.865Z,3.33
2018-12-09T18:39:58.322Z,3.60
2018-12-09T18:42:26.507Z,2.80
2018-12-09T18:44:55.231Z,4.30
2018-12-09T18:47:23.639Z,3.07
2018-12-09T18:49:51.843Z,1.93
2018-12-09T18:52:20.184Z,4.27
2018-12-09T18:54:48.545Z,3.30
2018-12-09T18:57:16.824Z,2.43
2018-12-09T18:59:45.390Z,2.87
2018-12-09T19:02:14.181Z,2.43
2018-12-09T19:04:42.629Z,3.53
2018-12-09T19:07:11.010Z,3.23
2018-12-09T19:09:39.326Z,4.13
2018-12-09T19:12:07.708Z,4.73
2018-12-09T19:14:35.872Z,2.80
2018-12-09T19:17:04.060Z,1.90
2018-12-09T19:19:32.200Z,2.13
2018-12-09T19:22:00.448Z,1.87
2018-12-09T19:24:28.697Z,5.73
2018-12-09T19:26:57.072Z,2.27
2018-12-09T19:29:25.364Z,4.20
2018-12-09T19:31:53.699Z,3.93
2018-12-09T19:34:21.840Z,1.93
2018-12-09T19:36:50.118Z,2.70
2018-12-09T19:39:18.372Z,3.50
2018-12-09T19:41:46.976Z,1.10
2018-12-09T19:44:15.361Z,3.93
2018-12-09T19:46:43.630Z,3.17
2018-12-09T19:49:11.911Z,2.70
2018-12-09T19:51:40.363Z,4.70
2018-12-09T19:54:08.607Z,1.67
2018-12-09T19:56:36.810Z,2.17
2018-12-09T19:59:05.074Z,1.67
2018-12-09T20:01:33.525Z,1.47
2018-12-09T20:04:01.778Z,1.40
2018-12-09T20:06:30.178Z,3.27
2018-12-09T20:08:58.435Z,3.83
2018-12-09T20:11:26.669Z,1.17
2018-12-09T20:13:54.920Z,1.93
2018-12-09T20:16:23.139Z,1.40
2018-12-09T20:18:51.375Z,2.20
2018-12-09T20:21:19.565Z,2.40
2018-12-09T20:23:47.807Z,2.40
2018-12-09T20:26:16.061Z,2.90
2018-12-09T20:28:44.527Z,2.33
2018-12-09T20:31:12.763Z,2.20
2018-12-09T20:33:40.979Z,3.57
2018-12-09T20:36:09.277Z,2.73
2018-12-09T20:38:37.486Z,2.53
2018-12-09T20:41:06.331Z,2.77
2018-12-09T20:43:34.719Z,5.57
2018-12-09T20:46:03.068Z,8.00
2018-12-09T20:48:31.277Z,2.23
2018-12-09T20:50:59.535Z,4.10
2018-12-09T20:53:27.731Z,4.20
2018-12-09T20:55:55.978Z,6.23
2018-12-09T20:58:24.261Z,6.00
2018-12-09T21:00:52.707Z,3.67
2018-12-09T21:03:21.005Z,2.00
2018-12-09T21:05:50.249Z,1.70
2018-12-09T21:08:18.435Z,3.90
2018-12-09T21:10:46.652Z,3.00
2018-12-09T21:13:14.829Z,5.10
2018-12-09T21:15:43.106Z,2.17
2018-12-09T21:18:11.364Z,2.00
2018-12-09T21:20:39.546Z,3.57
2018-12-09T21:23:07.816Z,3.47
2018-12-09T21:25:35.981Z,2.20
2018-12-09T21:28:04.216Z,3.17
2018-12-09T21:30:32.347Z,4.40
2018-12-09T21:33:00.527Z,1.83
2018-12-09T21:35:29.598Z,3.13
2018-12-09T21:37:57.877Z,4.10
2018-12-09T21:43:13.870Z,3.77
2018-12-09T21:45:42.425Z,3.70
2018-12-09T21:48:12.408Z,4.50
2018-12-09T21:50:40.732Z,5.60
2018-12-09T21:53:08.937Z,5.67
2018-12-09T21:55:37.176Z,3.30
2018-12-09T21:58:05.318Z,5.87
2018-12-09T22:00:33.538Z,3.83
2018-12-09T22:03:01.728Z,7.13
2018-12-09T22:05:30.108Z,7.33
2018-12-09T22:07:58.261Z,8.07
2018-12-09T22:10:26.474Z,5.00
2018-12-09T22:12:54.813Z,4.77
2018-12-09T22:15:23.092Z,3.73
2018-12-09T22:17:51.208Z,7.17
2018-12-09T22:20:19.461Z,8.23
2018-12-09T22:22:47.568Z,6.40
2018-12-09T22:25:15.787Z,8.60
2018-12-09T22:27:43.941Z,5.57
2018-12-09T22:30:12.255Z,9.87
2018-12-09T22:32:41.447Z,8.00
2018-12-09T22:35:09.728Z,7.63
2018-12-09T22:37:37.863Z,6.60
2018-12-09T22:40:06.969Z,6.83
2018-12-09T22:42:35.117Z,5.43
2018-12-09T22:45:03.847Z,5.93
2018-12-09T22:47:32.053Z,8.93
2018-12-09T22:50:00.348Z,8.43
2018-12-09T22:52:28.576Z,7.30
2018-12-09T22:54:56.877Z,5.70
2018-12-09T22:57:25.121Z,6.87
2018-12-09T22:59:53.294Z,6.10
2018-12-09T23:02:27.102Z,6.20
2018-12-09T23:04:55.212Z,5.37
2018-12-09T23:07:29.098Z,8.20
2018-12-09T23:09:57.208Z,3.17
2018-12-09T23:12:25.326Z,5.23
2018-12-09T23:14:53.486Z,5.93
2018-12-09T23:17:21.651Z,5.63
2018-12-09T23:19:49.881Z,5.10
2018-12-09T23:22:18.117Z,4.70
2018-12-09T23:24:46.272Z,8.73
2018-12-09T23:27:14.464Z,6.60
2018-12-09T23:29:42.599Z,5.97
2018-12-09T23:32:10.728Z,5.20
2018-12-09T23:34:38.977Z,7.47
2018-12-09T23:37:07.142Z,5.00
2018-12-09T23:39:35.286Z,6.07
2018-12-09T23:42:03.608Z,6.83
2018-12-09T23:44:31.786Z,5.10
2018-12-09T23:47:00.071Z,5.87
2018-12-09T23:49:28.243Z,4.57
2018-12-09T23:51:56.402Z,6.67
2018-12-09T23:54:24.535Z,6.53
2018-12-09T23:56:52.673Z,9.47
2018-12-09T23:59:20.882Z,6.27
